sensor_id;sensor_type;location;lat;lon;timestamp;pressure;altitude;pressure_sealevel;temperature;humidity
62029;BME280;50157;42.698;23.318;2023-02-13T00:02:23;96703.00;;;8.46;43.93
62029;BME280;50157;42.698;23.318;2023-02-13T00:04:49;96707.66;;;8.45;43.63
62029;BME280;50157;42.698;23.318;2023-02-13T00:07:16;96709.84;;;8.43;44.00
62029;BME280;50157;42.698;23.318;2023-02-13T00:09:44;96706.56;;;8.41;43.57
62029;BME280;50157;42.698;23.318;2023-02-13T00:12:11;96704.94;;;8.40;43.83
62029;BME280;50157;42.698;23.318;2023-02-13T00:14:38;96712.84;;;8.42;43.96
62029;BME280;50157;42.698;23.318;2023-02-13T00:17:05;96710.38;;;8.40;44.07
62029;BME280;50157;42.698;23.318;2023-02-13T00:19:32;96706.56;;;8.41;44.58
62029;BME280;50157;42.698;23.318;2023-02-13T00:21:59;96709.84;;;8.43;44.07
62029;BME280;50157;42.698;23.318;2023-02-13T00:24:26;96705.19;;;8.44;44.88
62029;BME280;50157;42.698;23.318;2023-02-13T00:26:54;96709.28;;;8.46;44.46
62029;BME280;50157;42.698;23.318;2023-02-13T00:29:21;96722.09;;;8.46;44.86
62029;BME280;50157;42.698;23.318;2023-02-13T00:31:47;96708.19;;;8.42;44.73
62029;BME280;50157;42.698;23.318;2023-02-13T00:34:14;96719.88;;;8.48;44.86
62029;BME280;50157;42.698;23.318;2023-02-13T00:36:41;96719.59;;;8.49;44.42
62029;BME280;50157;42.698;23.318;2023-02-13T00:39:09;96718.78;;;8.49;44.48
62029;BME280;50157;42.698;23.318;2023-02-13T00:41:37;96717.16;;;8.48;44.42
62029;BME280;50157;42.698;23.318;2023-02-13T00:44:05;96712.25;;;8.50;44.70
62029;BME280;50157;42.698;23.318;2023-02-13T00:46:32;96715.78;;;8.50;45.06
62029;BME280;50157;42.698;23.318;2023-02-13T00:48:58;96730.25;;;8.51;44.15
62029;BME280;50157;42.698;23.318;2023-02-13T00:51:25;96722.34;;;8.49;44.32
62029;BME280;50157;42.698;23.318;2023-02-13T00:53:52;96723.44;;;8.48;45.03
62029;BME280;50157;42.698;23.318;2023-02-13T00:56:19;96726.16;;;8.48;44.63
62029;BME280;50157;42.698;23.318;2023-02-13T00:58:46;96732.16;;;8.50;45.31
62029;BME280;50157;42.698;23.318;2023-02-13T01:01:14;96731.34;;;8.50;44.39
62029;BME280;50157;42.698;23.318;2023-02-13T01:03:41;96735.72;;;8.51;44.82
62029;BME280;50157;42.698;23.318;2023-02-13T01:06:08;96724.78;;;8.51;45.29
62029;BME280;50157;42.698;23.318;2023-02-13T01:08:37;96739.78;;;8.54;45.13
62029;BME280;50157;42.698;23.318;2023-02-13T01:11:05;96728.88;;;8.54;45.48
62029;BME280;50157;42.698;23.318;2023-02-13T01:13:32;96732.41;;;8.54;45.02
62029;BME280;50157;42.698;23.318;2023-02-13T01:15:59;96724.78;;;8.51;44.72
62029;BME280;50157;42.698;23.318;2023-02-13T01:18:27;96725.84;;;8.55;44.77
62029;BME280;50157;42.698;23.318;2023-02-13T01:20:56;96709.56;;;8.45;45.80
62029;BME280;50157;42.698;23.318;2023-02-13T01:23:23;96732.94;;;8.56;45.21
62029;BME280;50157;42.698;23.318;2023-02-13T01:25:50;96733.47;;;8.58;45.84
62029;BME280;50157;42.698;23.318;2023-02-13T01:28:17;96725.03;;;8.55;45.36
62029;BME280;50157;42.698;23.318;2023-02-13T01:30:44;96735.09;;;8.59;45.84
62029;BME280;50157;42.698;23.318;2023-02-13T01:33:11;96738.13;;;8.58;45.18
62029;BME280;50157;42.698;23.318;2023-02-13T01:35:39;96737.00;;;8.59;45.22
62029;BME280;50157;42.698;23.318;2023-02-13T01:38:06;96716.94;;;8.44;45.59
62029;BME280;50157;42.698;23.318;2023-02-13T01:40:33;96737.25;;;8.62;45.98
62029;BME280;50157;42.698;23.318;2023-02-13T01:43:00;96736.47;;;8.62;46.07
62029;BME280;50157;42.698;23.318;2023-02-13T01:45:28;96742.16;;;8.65;46.02
62029;BME280;50157;42.698;23.318;2023-02-13T01:47:57;96746.50;;;8.66;45.42
62029;BME280;50157;42.698;23.318;2023-02-13T01:50:30;96737.47;;;8.71;45.79
62029;BME280;50157;42.698;23.318;2023-02-13T01:53:04;96749.19;;;8.71;45.74
62029;BME280;50157;42.698;23.318;2023-02-13T01:55:34;96753.28;;;8.74;45.49
62029;BME280;50157;42.698;23.318;2023-02-13T01:58:05;96750.00;;;8.77;46.32
62029;BME280;50157;42.698;23.318;2023-02-13T02:00:34;96751.59;;;8.78;45.81
62029;BME280;50157;42.698;23.318;2023-02-13T02:03:05;96751.31;;;8.79;46.05
62029;BME280;50157;42.698;23.318;2023-02-13T02:05:35;96746.66;;;8.80;45.34
62029;BME280;50157;42.698;23.318;2023-02-13T02:08:05;96749.41;;;8.80;45.43
62029;BME280;50157;42.698;23.318;2023-02-13T02:10:35;96754.59;;;8.81;45.52
62029;BME280;50157;42.698;23.318;2023-02-13T02:13:06;96747.75;;;8.84;46.08
62029;BME280;50157;42.698;23.318;2023-02-13T02:15:33;96741.97;;;8.85;46.21
62029;BME280;50157;42.698;23.318;2023-02-13T02:18:00;96745.53;;;8.86;45.41
62029;BME280;50157;42.698;23.318;2023-02-13T02:20:42;96737.88;;;8.88;45.80
62029;BME280;50157;42.698;23.318;2023-02-13T02:23:40;96742.50;;;8.87;45.80
62029;BME280;50157;42.698;23.318;2023-02-13T02:29:28;96744.16;;;8.88;45.85
62029;BME280;50157;42.698;23.318;2023-02-13T02:32:14;96744.16;;;8.88;46.16
62029;BME280;50157;42.698;23.318;2023-02-13T02:34:51;96732.13;;;8.89;46.23
62029;BME280;50157;42.698;23.318;2023-02-13T02:37:31;96746.59;;;8.90;45.24
62029;BME280;50157;42.698;23.318;2023-02-13T02:40:10;96745.50;;;8.91;45.70
62029;BME280;50157;42.698;23.318;2023-02-13T02:42:56;96749.31;;;8.90;45.94
62029;BME280;50157;42.698;23.318;2023-02-13T02:45:28;96754.78;;;8.90;45.55
62029;BME280;50157;42.698;23.318;2023-02-13T02:48:06;96759.16;;;8.91;46.00
62029;BME280;50157;42.698;23.318;2023-02-13T02:50:57;96765.94;;;8.94;45.38
62029;BME280;50157;42.698;23.318;2023-02-13T02:53:31;96760.78;;;8.92;45.85
62029;BME280;50157;42.698;23.318;2023-02-13T02:56:07;96736.94;;;8.69;45.71
62029;BME280;50157;42.698;23.318;2023-02-13T02:58:39;96767.34;;;8.91;45.70
62029;BME280;50157;42.698;23.318;2023-02-13T03:01:26;96774.44;;;8.92;45.88
62029;BME280;50157;42.698;23.318;2023-02-13T03:04:17;96772.81;;;8.91;45.33
62029;BME280;50157;42.698;23.318;2023-02-13T03:07:05;96770.91;;;8.92;45.38
62029;BME280;50157;42.698;23.318;2023-02-13T03:09:37;96772.00;;;8.90;45.88
62029;BME280;50157;42.698;23.318;2023-02-13T03:12:26;96767.34;;;8.91;46.06
62029;BME280;50157;42.698;23.318;2023-02-13T03:15:12;96769.25;;;8.90;45.94
62029;BME280;50157;42.698;23.318;2023-02-13T03:17:39;96764.63;;;8.91;45.56
62029;BME280;50157;42.698;23.318;2023-02-13T03:20:32;96768.97;;;8.92;45.76
62029;BME280;50157;42.698;23.318;2023-02-13T03:23:29;96766.81;;;8.89;45.28
62029;BME280;50157;42.698;23.318;2023-02-13T03:26:10;96767.09;;;8.87;46.01
62029;BME280;50157;42.698;23.318;2023-02-13T03:28:49;96764.09;;;8.89;45.41
62029;BME280;50157;42.698;23.318;2023-02-13T03:31:41;96778.56;;;8.89;46.02
62029;BME280;50157;42.698;23.318;2023-02-13T03:34:12;96771.47;;;8.88;45.07
62029;BME280;50157;42.698;23.318;2023-02-13T03:36:48;96771.47;;;8.88;44.98
62029;BME280;50157;42.698;23.318;2023-02-13T03:39:47;96773.09;;;8.89;45.06
62029;BME280;50157;42.698;23.318;2023-02-13T03:42:22;96771.72;;;8.92;45.44
62029;BME280;50157;42.698;23.318;2023-02-13T03:44:55;96768.66;;;8.94;45.75
62029;BME280;50157;42.698;23.318;2023-02-13T03:47:42;96762.97;;;8.90;45.50
62029;BME280;50157;42.698;23.318;2023-02-13T03:50:11;96771.41;;;8.94;44.99
62029;BME280;50157;42.698;23.318;2023-02-13T03:52:43;96771.41;;;8.94;45.37
62029;BME280;50157;42.698;23.318;2023-02-13T03:55:15;96771.41;;;8.94;45.01
62029;BME280;50157;42.698;23.318;2023-02-13T03:58:03;96767.84;;;8.93;45.51
62029;BME280;50157;42.698;23.318;2023-02-13T04:00:51;96760.78;;;8.92;44.88
62029;BME280;50157;42.698;23.318;2023-02-13T04:03:23;96763.81;;;8.90;45.78
62029;BME280;50157;42.698;23.318;2023-02-13T04:05:57;96763.53;;;8.92;44.59
62029;BME280;50157;42.698;23.318;2023-02-13T04:08:28;96769.78;;;8.93;45.19
62029;BME280;50157;42.698;23.318;2023-02-13T04:10:58;96769.78;;;8.93;45.38
62029;BME280;50157;42.698;23.318;2023-02-13T04:13:32;96765.13;;;8.93;44.97
62029;BME280;50157;42.698;23.318;2023-02-13T04:16:05;96768.66;;;8.94;45.18
62029;BME280;50157;42.698;23.318;2023-02-13T04:18:34;96764.84;;;8.95;44.80
62029;BME280;50157;42.698;23.318;2023-02-13T04:21:01;96773.56;;;8.97;45.09
62029;BME280;50157;42.698;23.318;2023-02-13T04:23:30;96771.94;;;8.96;44.75
62029;BME280;50157;42.698;23.318;2023-02-13T04:25:59;96774.69;;;8.96;44.53
62029;BME280;50157;42.698;23.318;2023-02-13T04:28:27;96774.13;;;8.94;45.15
62029;BME280;50157;42.698;23.318;2023-02-13T04:30:54;96772.22;;;8.94;45.28
62029;BME280;50157;42.698;23.318;2023-02-13T04:33:21;96773.03;;;8.95;44.98
62029;BME280;50157;42.698;23.318;2023-02-13T04:35:48;96771.13;;;8.95;45.24
62029;BME280;50157;42.698;23.318;2023-02-13T04:38:15;96765.94;;;8.94;45.09
62029;BME280;50157;42.698;23.318;2023-02-13T04:40:43;96769.50;;;8.94;44.91
62029;BME280;50157;42.698;23.318;2023-02-13T04:43:10;96768.66;;;8.94;45.11
62029;BME280;50157;42.698;23.318;2023-02-13T04:45:36;96762.38;;;8.93;45.21
62029;BME280;50157;42.698;23.318;2023-02-13T04:48:03;96768.97;;;8.92;45.41
62029;BME280;50157;42.698;23.318;2023-02-13T04:50:30;96768.66;;;8.94;44.91
62029;BME280;50157;42.698;23.318;2023-02-13T04:52:57;96766.75;;;8.94;45.25
62029;BME280;50157;42.698;23.318;2023-02-13T04:55:25;96771.94;;;8.96;44.69
62029;BME280;50157;42.698;23.318;2023-02-13T04:57:54;96781.22;;;8.95;45.18
62029;BME280;50157;42.698;23.318;2023-02-13T05:00:22;96786.69;;;8.95;44.78
62029;BME280;50157;42.698;23.318;2023-02-13T05:02:49;96787.50;;;8.95;45.21
62029;BME280;50157;42.698;23.318;2023-02-13T05:05:16;96787.50;;;8.95;45.27
62029;BME280;50157;42.698;23.318;2023-02-13T05:07:45;96786.69;;;8.95;44.49
62029;BME280;50157;42.698;23.318;2023-02-13T05:10:12;96797.34;;;8.96;44.91
62029;BME280;50157;42.698;23.318;2023-02-13T05:12:38;96798.16;;;8.97;44.93
62029;BME280;50157;42.698;23.318;2023-02-13T05:15:08;96790.25;;;8.95;44.64
62029;BME280;50157;42.698;23.318;2023-02-13T05:17:34;96788.63;;;8.94;44.54
62029;BME280;50157;42.698;23.318;2023-02-13T05:20:01;96799.53;;;8.94;45.01
62029;BME280;50157;42.698;23.318;2023-02-13T05:22:28;96803.38;;;8.93;45.21
62029;BME280;50157;42.698;23.318;2023-02-13T05:25:12;96805.28;;;8.93;44.44
62029;BME280;50157;42.698;23.318;2023-02-13T05:27:39;96808.31;;;8.91;44.50
62029;BME280;50157;42.698;23.318;2023-02-13T05:30:08;96807.22;;;8.92;44.96
62029;BME280;50157;42.698;23.318;2023-02-13T05:32:34;96776.50;;;8.71;45.16
62029;BME280;50157;42.698;23.318;2023-02-13T05:35:01;96802.56;;;8.93;44.51
62029;BME280;50157;42.698;23.318;2023-02-13T05:37:27;96799.81;;;8.93;44.88
62029;BME280;50157;42.698;23.318;2023-02-13T05:39:54;96810.75;;;8.93;44.73
62029;BME280;50157;42.698;23.318;2023-02-13T05:42:21;96815.13;;;8.94;45.14
62029;BME280;50157;42.698;23.318;2023-02-13T05:44:48;96811.06;;;8.91;44.67
62029;BME280;50157;42.698;23.318;2023-02-13T05:47:16;96815.13;;;8.94;44.79
62029;BME280;50157;42.698;23.318;2023-02-13T05:49:43;96817.28;;;8.97;45.15
62029;BME280;50157;42.698;23.318;2023-02-13T05:52:09;96814.00;;;8.95;44.22
62029;BME280;50157;42.698;23.318;2023-02-13T05:54:36;96813.47;;;8.98;44.46
62029;BME280;50157;42.698;23.318;2023-02-13T05:57:04;96820.84;;;8.97;44.35
62029;BME280;50157;42.698;23.318;2023-02-13T05:59:30;96825.19;;;8.98;44.48
62029;BME280;50157;42.698;23.318;2023-02-13T06:01:57;96822.47;;;8.98;44.68
62029;BME280;50157;42.698;23.318;2023-02-13T06:04:25;96816.19;;;8.98;44.63
62029;BME280;50157;42.698;23.318;2023-02-13T06:06:52;96829.56;;;8.99;44.66
62029;BME280;50157;42.698;23.318;2023-02-13T06:09:19;96825.19;;;8.98;44.52
62029;BME280;50157;42.698;23.318;2023-02-13T06:11:46;96814.63;;;8.86;44.59
62029;BME280;50157;42.698;23.318;2023-02-13T06:14:13;96834.72;;;9.01;43.79
62029;BME280;50157;42.698;23.318;2023-02-13T06:16:40;96839.38;;;9.00;44.18
62029;BME280;50157;42.698;23.318;2023-02-13T06:19:07;96831.19;;;9.00;43.92
62029;BME280;50157;42.698;23.318;2023-02-13T06:21:35;96838.00;;;9.03;44.71
62029;BME280;50157;42.698;23.318;2023-02-13T06:24:04;96825.00;;;8.89;44.37
62029;BME280;50157;42.698;23.318;2023-02-13T06:26:30;96845.66;;;9.01;44.29
62029;BME280;50157;42.698;23.318;2023-02-13T06:28:57;96842.38;;;9.04;43.70
62029;BME280;50157;42.698;23.318;2023-02-13T06:31:24;96844.28;;;9.03;44.23
62029;BME280;50157;42.698;23.318;2023-02-13T06:33:51;96848.38;;;9.06;44.26
62029;BME280;50157;42.698;23.318;2023-02-13T06:36:18;96846.44;;;9.06;43.49
62029;BME280;50157;42.698;23.318;2023-02-13T06:38:46;96848.59;;;9.09;43.55
62029;BME280;50157;42.698;23.318;2023-02-13T06:41:12;96844.75;;;9.10;44.07
62029;BME280;50157;42.698;23.318;2023-02-13T06:43:40;96851.88;;;9.11;43.41
62029;BME280;50157;42.698;23.318;2023-02-13T06:46:07;96850.50;;;9.14;43.72
62029;BME280;50157;42.698;23.318;2023-02-13T06:48:34;96852.13;;;9.15;43.85
62029;BME280;50157;42.698;23.318;2023-02-13T06:51:01;96854.28;;;9.18;43.73
62029;BME280;50157;42.698;23.318;2023-02-13T06:53:28;96855.91;;;9.19;44.04
62029;BME280;50157;42.698;23.318;2023-02-13T06:55:57;96844.44;;;9.17;43.45
62029;BME280;50157;42.698;23.318;2023-02-13T06:58:24;96847.16;;;9.22;43.37
62029;BME280;50157;42.698;23.318;2023-02-13T07:00:51;96841.09;;;9.25;43.93
62029;BME280;50157;42.698;23.318;2023-02-13T07:03:18;96844.38;;;9.27;43.44
62029;BME280;50157;42.698;23.318;2023-02-13T07:05:45;96846.00;;;9.28;43.43
62029;BME280;50157;42.698;23.318;2023-02-13T07:08:12;96816.34;;;9.11;43.61
62029;BME280;50157;42.698;23.318;2023-02-13T07:10:39;96816.88;;;9.13;43.18
62029;BME280;50157;42.698;23.318;2023-02-13T07:13:08;96822.28;;;9.18;43.79
62029;BME280;50157;42.698;23.318;2023-02-13T07:15:36;96839.09;;;9.36;43.63
62029;BME280;50157;42.698;23.318;2023-02-13T07:18:03;96836.38;;;9.36;43.34
62029;BME280;50157;42.698;23.318;2023-02-13T07:20:31;96843.69;;;9.40;43.30
62029;BME280;50157;42.698;23.318;2023-02-13T07:22:58;96850.22;;;9.44;43.66
62029;BME280;50157;42.698;23.318;2023-02-13T07:25:25;96848.31;;;9.45;43.04
62029;BME280;50157;42.698;23.318;2023-02-13T07:27:52;96857.28;;;9.50;43.21
62029;BME280;50157;42.698;23.318;2023-02-13T07:30:20;96853.72;;;9.50;43.11
62029;BME280;50157;42.698;23.318;2023-02-13T07:32:47;96857.00;;;9.52;42.96
62029;BME280;50157;42.698;23.318;2023-02-13T07:35:15;96856.72;;;9.53;43.23
62029;BME280;50157;42.698;23.318;2023-02-13T07:37:42;96841.91;;;9.54;43.36
62029;BME280;50157;42.698;23.318;2023-02-13T07:40:10;96850.38;;;9.58;43.14
62029;BME280;50157;42.698;23.318;2023-02-13T07:42:36;96858.28;;;9.59;43.21
62029;BME280;50157;42.698;23.318;2023-02-13T07:45:04;96854.72;;;9.59;42.87
62029;BME280;50157;42.698;23.318;2023-02-13T07:47:33;96850.66;;;9.56;43.46
62029;BME280;50157;42.698;23.318;2023-02-13T07:50:00;96849.00;;;9.60;43.22
62029;BME280;50157;42.698;23.318;2023-02-13T07:52:27;96856.06;;;9.61;42.89
62029;BME280;50157;42.698;23.318;2023-02-13T07:54:54;96853.84;;;9.63;42.85
62029;BME280;50157;42.698;23.318;2023-02-13T07:57:20;96853.03;;;9.63;42.66
62029;BME280;50157;42.698;23.318;2023-02-13T07:59:47;96843.47;;;9.65;43.04
62029;BME280;50157;42.698;23.318;2023-02-13T08:02:15;96854.34;;;9.71;43.04
62029;BME280;50157;42.698;23.318;2023-02-13T08:04:43;96856.50;;;9.74;42.67
62029;BME280;50157;42.698;23.318;2023-02-13T08:07:12;96829.31;;;9.58;42.62
62029;BME280;50157;42.698;23.318;2023-02-13T08:09:38;96848.00;;;9.75;42.82
62029;BME280;50157;42.698;23.318;2023-02-13T08:12:23;96849.94;;;9.75;43.09
62029;BME280;50157;42.698;23.318;2023-02-13T08:14:50;96856.22;;;9.75;42.50
62029;BME280;50157;42.698;23.318;2023-02-13T08:17:16;96847.13;;;9.80;42.64
62029;BME280;50157;42.698;23.318;2023-02-13T08:19:45;96852.53;;;9.85;42.85
62029;BME280;50157;42.698;23.318;2023-02-13T08:22:11;96841.59;;;9.85;42.74
62029;BME280;50157;42.698;23.318;2023-02-13T08:24:38;96850.34;;;9.87;42.30
62029;BME280;50157;42.698;23.318;2023-02-13T08:27:05;96854.97;;;9.91;42.37
62029;BME280;50157;42.698;23.318;2023-02-13T08:29:32;96846.75;;;9.91;42.47
62029;BME280;50157;42.698;23.318;2023-02-13T08:31:59;96849.47;;;9.91;42.03
62029;BME280;50157;42.698;23.318;2023-02-13T08:34:26;96845.34;;;9.94;42.17
62029;BME280;50157;42.698;23.318;2023-02-13T08:36:54;96848.88;;;9.94;42.31
62029;BME280;50157;42.698;23.318;2023-02-13T08:39:21;96860.66;;;9.95;42.25
62029;BME280;50157;42.698;23.318;2023-02-13T08:41:47;96853.53;;;9.94;42.47
62029;BME280;50157;42.698;23.318;2023-02-13T08:44:14;96851.09;;;9.92;42.46
62029;BME280;50157;42.698;23.318;2023-02-13T08:46:41;96844.22;;;9.95;42.43
62029;BME280;50157;42.698;23.318;2023-02-13T08:49:08;96852.38;;;10.00;42.38
62029;BME280;50157;42.698;23.318;2023-02-13T08:51:35;96848.53;;;10.01;42.33
62029;BME280;50157;42.698;23.318;2023-02-13T08:54:03;96855.63;;;10.02;42.62
62029;BME280;50157;42.698;23.318;2023-02-13T08:56:30;96849.94;;;9.98;42.37
62029;BME280;50157;42.698;23.318;2023-02-13T08:58:56;96850.41;;;10.05;41.79
62029;BME280;50157;42.698;23.318;2023-02-13T09:01:23;96851.81;;;10.03;42.10
62029;BME280;50157;42.698;23.318;2023-02-13T09:03:50;96851.81;;;10.03;42.28
62029;BME280;50157;42.698;23.318;2023-02-13T09:06:17;96848.19;;;10.07;42.59
62029;BME280;50157;42.698;23.318;2023-02-13T09:08:44;96856.34;;;10.13;42.41
62029;BME280;50157;42.698;23.318;2023-02-13T09:11:12;96851.66;;;10.18;42.25
62029;BME280;50157;42.698;23.318;2023-02-13T09:13:39;96856.84;;;10.20;42.18
62029;BME280;50157;42.698;23.318;2023-02-13T09:16:06;96848.34;;;10.21;42.01
62029;BME280;50157;42.698;23.318;2023-02-13T09:18:34;96847.44;;;10.26;41.62
62029;BME280;50157;42.698;23.318;2023-02-13T09:21:03;96841.09;;;10.30;41.72
62029;BME280;50157;42.698;23.318;2023-02-13T09:23:31;96840.81;;;10.32;41.85
62029;BME280;50157;42.698;23.318;2023-02-13T09:25:58;96841.84;;;10.36;41.69
62029;BME280;50157;42.698;23.318;2023-02-13T09:28:28;96802.44;;;10.13;41.65
62029;BME280;50157;42.698;23.318;2023-02-13T09:30:55;96821.09;;;10.30;41.57
62029;BME280;50157;42.698;23.318;2023-02-13T09:33:22;96820.16;;;10.39;41.80
62029;BME280;50157;42.698;23.318;2023-02-13T09:35:48;96833.94;;;10.53;41.63
62029;BME280;50157;42.698;23.318;2023-02-13T09:38:15;96833.88;;;10.58;41.68
62029;BME280;50157;42.698;23.318;2023-02-13T09:40:45;96823.75;;;10.59;41.21
62029;BME280;50157;42.698;23.318;2023-02-13T09:43:17;96827.47;;;10.68;41.29
62029;BME280;50157;42.698;23.318;2023-02-13T09:45:50;96819.69;;;10.75;41.04
62029;BME280;50157;42.698;23.318;2023-02-13T09:48:25;96817.53;;;10.72;41.18
62029;BME280;50157;42.698;23.318;2023-02-13T09:50:53;96813.16;;;10.71;41.98
62029;BME280;50157;42.698;23.318;2023-02-13T09:53:24;96817.81;;;10.70;41.25
62029;BME280;50157;42.698;23.318;2023-02-13T09:56:02;96776.13;;;10.55;41.19
62029;BME280;50157;42.698;23.318;2023-02-13T09:58:50;96806.72;;;10.80;41.66
62029;BME280;50157;42.698;23.318;2023-02-13T10:01:28;96810.28;;;10.81;40.99
62029;BME280;50157;42.698;23.318;2023-02-13T10:04:11;96799.38;;;10.76;41.31
62029;BME280;50157;42.698;23.318;2023-02-13T10:06:44;96795.03;;;10.75;41.20
62029;BME280;50157;42.698;23.318;2023-02-13T10:09:21;96782.28;;;10.65;41.11
62029;BME280;50157;42.698;23.318;2023-02-13T10:12:14;96793.16;;;10.70;41.44
62029;BME280;50157;42.698;23.318;2023-02-13T10:14:46;96735.38;;;10.34;41.28
62029;BME280;50157;42.698;23.318;2023-02-13T10:17:20;96775.72;;;10.66;41.83
62029;BME280;50157;42.698;23.318;2023-02-13T10:19:52;96775.47;;;10.63;41.46
62029;BME280;50157;42.698;23.318;2023-02-13T10:22:24;96761.34;;;10.56;41.27
62029;BME280;50157;42.698;23.318;2023-02-13T10:24:56;96778.38;;;10.53;42.27
62029;BME280;50157;42.698;23.318;2023-02-13T10:27:27;96774.22;;;10.55;41.38
62029;BME280;50157;42.698;23.318;2023-02-13T10:29:59;96759.72;;;10.55;41.75
62029;BME280;50157;42.698;23.318;2023-02-13T10:32:40;96754.22;;;10.55;41.68
62029;BME280;50157;42.698;23.318;2023-02-13T10:35:17;96755.84;;;10.56;41.49
62029;BME280;50157;42.698;23.318;2023-02-13T10:37:46;96751.00;;;10.53;41.93
62029;BME280;50157;42.698;23.318;2023-02-13T10:40:16;96742.44;;;10.54;41.89
62029;BME280;50157;42.698;23.318;2023-02-13T10:42:45;96736.69;;;10.56;41.86
62029;BME280;50157;42.698;23.318;2023-02-13T10:45:24;96734.25;;;10.54;41.62
62029;BME280;50157;42.698;23.318;2023-02-13T10:48:10;96732.94;;;10.52;41.60
62029;BME280;50157;42.698;23.318;2023-02-13T10:50:43;96729.56;;;10.55;41.71
62029;BME280;50157;42.698;23.318;2023-02-13T10:53:17;96724.19;;;10.50;41.93
62029;BME280;50157;42.698;23.318;2023-02-13T10:55:58;96721.97;;;10.52;41.68
62029;BME280;50157;42.698;23.318;2023-02-13T10:58:38;96722.47;;;10.54;42.36
62029;BME280;50157;42.698;23.318;2023-02-13T11:01:13;96718.63;;;10.55;42.25
62029;BME280;50157;42.698;23.318;2023-02-13T11:03:45;96715.88;;;10.55;41.99
62029;BME280;50157;42.698;23.318;2023-02-13T11:06:16;96707.16;;;10.53;41.95
62029;BME280;50157;42.698;23.318;2023-02-13T11:08:46;96709.91;;;10.53;42.01
62029;BME280;50157;42.698;23.318;2023-02-13T11:11:30;96698.97;;;10.53;41.68
62029;BME280;50157;42.698;23.318;2023-02-13T11:14:08;96676.16;;;10.38;41.67
62029;BME280;50157;42.698;23.318;2023-02-13T11:16:42;96694.50;;;10.57;41.74
62029;BME280;50157;42.698;23.318;2023-02-13T11:19:17;96695.84;;;10.59;41.86
62029;BME280;50157;42.698;23.318;2023-02-13T11:21:46;96678.66;;;10.54;41.92
62029;BME280;50157;42.698;23.318;2023-02-13T11:24:20;96685.38;;;10.61;41.75
62029;BME280;50157;42.698;23.318;2023-02-13T11:26:50;96642.72;;;10.41;41.79
62029;BME280;50157;42.698;23.318;2023-02-13T11:29:22;96669.75;;;10.62;41.76
62029;BME280;50157;42.698;23.318;2023-02-13T11:32:05;96663.97;;;10.63;41.36
62029;BME280;50157;42.698;23.318;2023-02-13T11:34:38;96655.47;;;10.65;41.36
62029;BME280;50157;42.698;23.318;2023-02-13T11:37:15;96655.66;;;10.68;41.51
62029;BME280;50157;42.698;23.318;2023-02-13T11:39:44;96646.66;;;10.68;40.95
62029;BME280;50157;42.698;23.318;2023-02-13T11:42:13;96640.56;;;10.71;41.21
62029;BME280;50157;42.698;23.318;2023-02-13T11:44:41;96629.72;;;10.66;40.78
62029;BME280;50157;42.698;23.318;2023-02-13T11:47:09;96643.31;;;10.71;41.17
62029;BME280;50157;42.698;23.318;2023-02-13T11:49:44;96632.88;;;10.73;41.12
62029;BME280;50157;42.698;23.318;2023-02-13T11:52:22;96622.50;;;10.70;40.91
62029;BME280;50157;42.698;23.318;2023-02-13T11:54:55;96619.69;;;10.75;41.09
62029;BME280;50157;42.698;23.318;2023-02-13T11:57:24;96617.44;;;10.77;40.87
62029;BME280;50157;42.698;23.318;2023-02-13T11:59:53;96610.84;;;10.78;40.78
62029;BME280;50157;42.698;23.318;2023-02-13T12:02:22;96605.66;;;10.76;40.95
62029;BME280;50157;42.698;23.318;2023-02-13T12:04:52;96574.41;;;10.64;40.92
62029;BME280;50157;42.698;23.318;2023-02-13T12:07:22;96592.19;;;10.80;40.76
62029;BME280;50157;42.698;23.318;2023-02-13T12:09:53;96594.34;;;10.83;40.12
62029;BME280;50157;42.698;23.318;2023-02-13T12:12:26;96593.81;;;10.81;40.46
62029;BME280;50157;42.698;23.318;2023-02-13T12:14:55;96591.78;;;10.87;40.29
62029;BME280;50157;42.698;23.318;2023-02-13T12:17:25;96586.59;;;10.85;39.73
62029;BME280;50157;42.698;23.318;2023-02-13T12:19:55;96594.22;;;10.88;40.21
62029;BME280;50157;42.698;23.318;2023-02-13T12:22:29;96592.31;;;10.89;40.08
62029;BME280;50157;42.698;23.318;2023-02-13T12:25:13;96578.59;;;10.89;39.60
62029;BME280;50157;42.698;23.318;2023-02-13T12:27:49;96583.47;;;10.92;40.07
62029;BME280;50157;42.698;23.318;2023-02-13T12:30:36;96581.25;;;10.94;39.90
62029;BME280;50157;42.698;23.318;2023-02-13T12:33:18;96582.06;;;10.94;39.73
62029;BME280;50157;42.698;23.318;2023-02-13T12:35:58;96571.09;;;10.94;40.05
62029;BME280;50157;42.698;23.318;2023-02-13T12:38:41;96568.34;;;10.94;39.41
62029;BME280;50157;42.698;23.318;2023-02-13T12:41:16;96568.06;;;10.96;39.79
62029;BME280;50157;42.698;23.318;2023-02-13T12:47:09;96565.84;;;10.98;39.44
62029;BME280;50157;42.698;23.318;2023-02-13T12:52:56;96549.88;;;11.00;39.03
62029;BME280;50157;42.698;23.318;2023-02-13T12:55:51;96548.75;;;11.01;39.39
62029;BME280;50157;42.698;23.318;2023-02-13T13:01:37;96547.03;;;11.05;39.10
62029;BME280;50157;42.698;23.318;2023-02-13T13:04:14;96544.59;;;11.03;38.86
62029;BME280;50157;42.698;23.318;2023-02-13T13:06:56;96538.81;;;11.05;39.02
62029;BME280;50157;42.698;23.318;2023-02-13T13:09:58;96539.31;;;11.07;38.83
62029;BME280;50157;42.698;23.318;2023-02-13T13:12:41;96543.19;;;11.06;38.23
62029;BME280;50157;42.698;23.318;2023-02-13T13:15:18;96528.97;;;11.04;38.79
62029;BME280;50157;42.698;23.318;2023-02-13T13:17:59;96531.91;;;11.07;38.86
62029;BME280;50157;42.698;23.318;2023-02-13T13:20:55;96523.38;;;11.09;39.12
62029;BME280;50157;42.698;23.318;2023-02-13T13:23:29;96521.75;;;11.08;39.08
62029;BME280;50157;42.698;23.318;2023-02-13T13:26:05;96511.09;;;11.06;39.00
62029;BME280;50157;42.698;23.318;2023-02-13T13:28:36;96519.53;;;11.10;38.90
62029;BME280;50157;42.698;23.318;2023-02-13T13:31:04;96515.66;;;11.11;38.45
62029;BME280;50157;42.698;23.318;2023-02-13T13:33:32;96510.19;;;11.11;38.75